Wells Town, Mississippi
Current Conditions -  °F | °C
As of 12:53 PM on Saturday 25 Oct 2014 (Local Time) from KHBG Reporting Station
Clear Clear  
Wind Chill: 76°   Ceiling: Unl
Heat Index: 76°   Visibility: 10mi
Dew Point: 56°   Wind: 3mph
Humidity: 50%   Direction: NA
Pressure: 30.13"   Gusts: NA
Location:  31.0601°N, 89.4815°W
Report Text: KHBG 251753Z AUTO VRB03KT 10SM CLR 24/13 A3013 RMK AO2 SLP201 T02440133 10244 20072 58016
Loading
Personal Weather Stations






























Interactive Weather Map New forecast layout! Learn more

10-Day Weather Forecast

Advertisements
Track Severe Weather on mobile